Hauptseite
METAR-TAF:

METAR-TAF

Flughäfen :

Luxeuil-les-Bains, Frankreich

Militärflugplatz Luxeuil-Saint Sauveur

Breite: 47-47N, Länge: 006-21E, Höhe: 278 m

Beobachtung

Neuester Wetterbericht von vor 38 Minuten, um 11:00 UTC
Wind 7 kt aus Süd/Südost, variierte zwischen Ost/Südost und Süd/Südwest
Temperatur 15°C
Luftfeuchtigkeit 51%
Luftdruck 1018 hPa
Sichtweite 10 km oder mehr
keine Wolken unter 1500 m und keine Kumulonimbus oder Gewitterwolken

METAR: LFSX 251100Z AUTO 15007KT 120V200 CAVOK 15/05 Q1018

Zeit: 12:38 (11:38 UTC)

Prognose

Neuester Wetterbericht von vor 27 Stunden und 38 Minuten, um 08:00 UTC
Gültige Prognose vom 24 um 09 UTC bis 25 um 09 UTC
Wind 4 kt aus Südwest
Sichtweite 10 km oder mehr
Durchbrochene Bewölkung in der Höhe von 3000 ft

TAF: LFSX 240800Z 2409/2509 22004KT 9999 BKN030

Wetterbeobachtungen und Prognosen von mehr als 4000 Flughäfen (METAR und TAF Bericht).

Die verfügbaren Stationen werden durch gelbe und rote Markierungen auf der Karte dargestellt.

Führen Sie die Maus auf sie, um den Namen der Station zu sehen.

Darauf klicken, um die Beobachtung von Wetterbeobachtungen und Prognosen zu sehen.

Um die Karte zu ändern : klicken Sie auf den grünen Tasten mit einem schwarzen Kreuz Zum Vergrößern, auf den grünen Button mit einem Gedankenstrich zu verkleinern, oder auf die grünen Pfeile für benachbarte Karten.


METAR-TAF: